Sioux Falls, SD (57101)

3:06 PM CDT on May 27, 2017 (GMT -0500)
Northeast Sioux Falls | | Change Station

Elev 1467 ft 43.55 °N, 96.66 °W | Updated 2 seconds ago

Overcast
Overcast
66.7 °F
Feels Like 66.7 °F
N
0.0
Wind Variable Wind from NNW
Gusts 0.0 mph

Today
High -- | Low -- °F
--% Chance of Precip.
Yesterday
High -- | Low -- °F
Precip. -- in
Pressure 29.95 in
Visibility 10.0 miles
Clouds Few 6000 ft
Overcast 7500 ft
Dew Point 56 °F
Humidity 68%
Rainfall 0.07 in
Snow Depth Not available.
5:51 AM 8:57 PM
Waxing Crescent, 6% visible
METAR KFSD 271856Z 21007KT 180V250 10SM FEW060 OVC075 17/12 A2995 RMK AO2 RAB20E48 SLP142 P0000 T01720122
Pressure 29.95 in
Visibility 10.0 miles
Clouds Few 6000 ft
Overcast 7500 ft
Dew Point 56 °F
Humidity 68%
Rainfall 0.07 in
Snow Depth Not available.
5:51 AM 8:57 PM
Waxing Crescent, 6% visible
METAR KFSD 271856Z 21007KT 180V250 10SM FEW060 OVC075 17/12 A2995 RMK AO2 RAB20E48 SLP142 P0000 T01720122

Get Severe Weather Alerts

Thanks for signing up!

Be on the lookout for a verification email in your inbox.

You'll start receiving the daily forecast at 6 AM.

×

10-Day Weather Forecast

Almanac

Astronomy

May. 27, 2017 Rise Set
Actual Time
Civil Twilight
Nautical Twilight
Astronomical Twilight
Moon
Length of Visible Light
Length of Day
Tomorrow will be .
, % of the Moon is Illuminated

Today's Extremes

State Highs State Lows

Community

WunderPhotos

Category 6

Welcome to Category 6. This is the collective home for Weather Underground's featured writeups by Dr. Jeff Masters (right), Bob Henson (left), Chris Burt, and other regular contributors.

Nearby

Air Quality

  Air Quality AQ Index Pollutant
Not available.

Snow Depth

Station Depth Elevation

Earthquake Activity

City Distance Mag. Time & Date
Minimum magnitude displayed is 2.5.

Coastal Water Temperatures

Place Temperature

Stations

Nearby Weather Stations

Station Location Temp. Windchill Dew Point Humidity Wind Precip. Elev Updated Type
                   

Watches & Warnings

There are currently no watches in effect.